Airfield :
LOGIN :

Register | Disclaimer

   EN    FR    IT 

 










Legend :    VFR   Marginal VFR   IFR   Intensive IFR   Very Intensive IFR
Visi :
Ceiling :
>= 8 km
>= 3000ft
5 to 8 km
1000 to 3000 ft
1500m to 5 km
500 to 1000 ft
800 to 1500m
200 to 500 ft
< 800m
< 200 ft
Symbols :   Thunderstorms  Fog  Heavy snow  Heavy precipitations  Wind > 20 kt
SIGMETs :     Misc.  Thunderstorms  Icing  Turbulence  Mountain Waves  Volcanic Ashes






- Airport Elevation : 645 ft
- IATA code : DLE


LFGJ - Dole Tavaux

CURRENT METAR :
  • 270630Z AUTO 20018KT 9999 -RA BKN009/// OVC013/// ///TCU 08/07 Q1004 TEMPO 22015G25KT 4000 RA BKN007

EXPIRED METARs :
  • 270600Z AUTO 20018KT 6000 -RA BKN008 OVC013 08/07 Q1004 TEMPO 22015G25KT 4000 RA
  • 270530Z AUTO 20017KT 7000 RA OVC007/// ///TCU 08/07 Q1004 TEMPO 22015G25KT 4000 RA BKN007
  • 270500Z AUTO 20016KT 9000 -RA BKN007/// OVC038/// ///TCU 07/07 Q1004
  • 270430Z AUTO 20013KT 6000 RA BKN007/// OVC012/// ///TCU 07/07 Q1005
  • 270400Z AUTO 20013KT 7000 RA BKN010/// BKN016/// OVC026/// ///TCU 07/07 Q1005

TAF TAF LFGJ
Valid from the 27 at 06:00 until the 27 at 15:00 UTC


270500Z 2706/2715 21012KT 9999 BKN030
TEMPO 2706/2714 4000 RA BKN007
PROB40
TEMPO 2706/2708 22015G25KT



MET'MAP, your aeronautical weather chart ! - Copyright ORBIFLY December 2007 - Disclaimer

ORBIFLY MET'MAP TEAM :

Programming & Development : Alexandra Zaïnal
Concept & original design : Baudouin d'Aumeries
Assistance for programming : Marc-Olivier Méhu
Technical & hardware support : Manuel Goepfert

Contact : metmap@orbifly.com




SOURCES & CREDITS :

   NOAA